sensor_id;sensor_type;location;lat;lon;timestamp;pressure;altitude;pressure_sealevel;temperature;humidity
64189;BME280;50493;50.970;10.082;2023-05-07T00:01:46;99456.84;;;14.14;61.05
64189;BME280;50493;50.970;10.082;2023-05-07T00:04:12;99454.44;;;14.81;59.29
64189;BME280;50493;50.970;10.082;2023-05-07T00:06:38;99445.22;;;15.37;59.17
64189;BME280;50493;50.970;10.082;2023-05-07T00:09:04;99454.94;;;14.43;63.04
64189;BME280;50493;50.970;10.082;2023-05-07T00:11:30;99458.47;;;14.90;61.66
64189;BME280;50493;50.970;10.082;2023-05-07T00:13:55;99453.34;;;14.87;58.28
64189;BME280;50493;50.970;10.082;2023-05-07T00:16:20;99458.47;;;14.90;58.68
64189;BME280;50493;50.970;10.082;2023-05-07T00:18:47;99457.06;;;15.27;59.67
64189;BME280;50493;50.970;10.082;2023-05-07T00:21:12;99458.16;;;14.99;60.01
64189;BME280;50493;50.970;10.082;2023-05-07T00:23:38;99457.13;;;14.79;58.89
64189;BME280;50493;50.970;10.082;2023-05-07T00:26:03;99458.16;;;14.75;58.98
64189;BME280;50493;50.970;10.082;2023-05-07T00:28:29;99456.94;;;15.08;58.30
64189;BME280;50493;50.970;10.082;2023-05-07T00:30:54;99459.88;;;15.00;60.13
64189;BME280;50493;50.970;10.082;2023-05-07T00:33:19;99458.84;;;15.26;58.32
64189;BME280;50493;50.970;10.082;2023-05-07T00:35:47;99460.09;;;14.94;59.71
64189;BME280;50493;50.970;10.082;2023-05-07T00:38:13;99461.97;;;15.36;58.24
64189;BME280;50493;50.970;10.082;2023-05-07T00:40:38;99458.84;;;15.48;56.84
64189;BME280;50493;50.970;10.082;2023-05-07T00:43:03;99471.75;;;14.63;59.93
64189;BME280;50493;50.970;10.082;2023-05-07T00:45:29;99466.78;;;14.06;60.95
64189;BME280;50493;50.970;10.082;2023-05-07T00:47:55;99464.31;;;14.50;58.22
64189;BME280;50493;50.970;10.082;2023-05-07T00:50:21;99462.84;;;13.93;62.88
64189;BME280;50493;50.970;10.082;2023-05-07T00:52:47;99450.06;;;14.56;59.22
64189;BME280;50493;50.970;10.082;2023-05-07T00:55:13;99447.84;;;14.69;60.27
64189;BME280;50493;50.970;10.082;2023-05-07T00:57:40;99449.41;;;14.98;58.23
64189;BME280;50493;50.970;10.082;2023-05-07T01:00:07;99448.81;;;14.90;58.88
64189;BME280;50493;50.970;10.082;2023-05-07T01:02:34;99445.81;;;14.54;63.40
64189;BME280;50493;50.970;10.082;2023-05-07T01:05:00;99446.56;;;13.81;71.87
64189;BME280;50493;50.970;10.082;2023-05-07T01:07:26;99447.75;;;12.89;71.97
64189;BME280;50493;50.970;10.082;2023-05-07T01:09:53;99444.28;;;12.89;72.16
64189;BME280;50493;50.970;10.082;2023-05-07T01:12:19;99442.44;;;12.91;73.77
64189;BME280;50493;50.970;10.082;2023-05-07T01:14:45;99437.94;;;12.96;72.58
64189;BME280;50493;50.970;10.082;2023-05-07T01:17:10;99436.69;;;12.78;70.43
64189;BME280;50493;50.970;10.082;2023-05-07T01:19:36;99438.00;;;12.63;73.15
64189;BME280;50493;50.970;10.082;2023-05-07T01:22:03;99440.09;;;12.81;68.47
64189;BME280;50493;50.970;10.082;2023-05-07T01:24:31;99441.78;;;13.12;66.34
64189;BME280;50493;50.970;10.082;2023-05-07T01:26:56;99444.28;;;12.26;68.99
64189;BME280;50493;50.970;10.082;2023-05-07T01:29:22;99432.63;;;13.26;66.80
64189;BME280;50493;50.970;10.082;2023-05-07T01:31:48;99432.88;;;13.45;64.43
64189;BME280;50493;50.970;10.082;2023-05-07T01:34:15;99438.28;;;13.67;63.10
64189;BME280;50493;50.970;10.082;2023-05-07T01:36:42;99437.06;;;13.50;62.23
64189;BME280;50493;50.970;10.082;2023-05-07T01:39:08;99432.94;;;13.70;62.64
64189;BME280;50493;50.970;10.082;2023-05-07T01:41:37;99434.06;;;13.63;63.32
64189;BME280;50493;50.970;10.082;2023-05-07T01:44:03;99438.53;;;13.86;61.80
64189;BME280;50493;50.970;10.082;2023-05-07T01:46:30;99435.16;;;13.56;63.73
64189;BME280;50493;50.970;10.082;2023-05-07T01:48:56;99435.44;;;13.46;64.64
64189;BME280;50493;50.970;10.082;2023-05-07T01:51:21;99438.06;;;13.73;62.22
64189;BME280;50493;50.970;10.082;2023-05-07T01:53:47;99441.81;;;13.66;62.22
64189;BME280;50493;50.970;10.082;2023-05-07T01:56:15;99448.69;;;13.97;61.59
64189;BME280;50493;50.970;10.082;2023-05-07T01:58:42;99447.19;;;13.90;61.36
64189;BME280;50493;50.970;10.082;2023-05-07T02:01:08;99440.88;;;13.69;61.83
64189;BME280;50493;50.970;10.082;2023-05-07T02:03:33;99437.31;;;13.70;61.20
64189;BME280;50493;50.970;10.082;2023-05-07T02:05:58;99443.13;;;13.26;63.03
64189;BME280;50493;50.970;10.082;2023-05-07T02:08:24;99449.31;;;12.95;64.44
64189;BME280;50493;50.970;10.082;2023-05-07T02:10:49;99439.59;;;13.27;63.20
64189;BME280;50493;50.970;10.082;2023-05-07T02:13:16;99440.38;;;13.02;62.84
64189;BME280;50493;50.970;10.082;2023-05-07T02:15:43;99443.25;;;12.63;65.41
64189;BME280;50493;50.970;10.082;2023-05-07T02:18:12;99438.38;;;13.10;63.80
64189;BME280;50493;50.970;10.082;2023-05-07T02:20:38;99449.19;;;11.36;69.00
64189;BME280;50493;50.970;10.082;2023-05-07T02:23:04;99440.53;;;12.66;66.35
64189;BME280;50493;50.970;10.082;2023-05-07T02:25:29;99443.31;;;12.91;64.45
64189;BME280;50493;50.970;10.082;2023-05-07T02:27:55;99442.56;;;12.88;64.19
64189;BME280;50493;50.970;10.082;2023-05-07T02:30:20;99444.63;;;13.35;62.37
64189;BME280;50493;50.970;10.082;2023-05-07T02:32:47;99453.03;;;12.88;63.20
64189;BME280;50493;50.970;10.082;2023-05-07T02:35:13;99445.72;;;12.68;64.66
64189;BME280;50493;50.970;10.082;2023-05-07T02:37:38;99448.13;;;12.75;64.27
64189;BME280;50493;50.970;10.082;2023-05-07T02:40:05;99451.72;;;13.03;62.03
64189;BME280;50493;50.970;10.082;2023-05-07T02:42:30;99456.00;;;12.45;64.57
64189;BME280;50493;50.970;10.082;2023-05-07T02:44:56;99453.47;;;12.72;64.07
64189;BME280;50493;50.970;10.082;2023-05-07T02:47:21;99447.03;;;12.84;63.04
64189;BME280;50493;50.970;10.082;2023-05-07T02:49:48;99445.50;;;12.45;65.30
64189;BME280;50493;50.970;10.082;2023-05-07T02:52:14;99442.69;;;12.83;62.74
64189;BME280;50493;50.970;10.082;2023-05-07T02:54:39;99442.66;;;12.53;63.35
64189;BME280;50493;50.970;10.082;2023-05-07T02:57:05;99441.63;;;12.59;64.37
64189;BME280;50493;50.970;10.082;2023-05-07T02:59:30;99449.13;;;11.75;66.67
64189;BME280;50493;50.970;10.082;2023-05-07T03:01:56;99449.28;;;12.35;65.62
64189;BME280;50493;50.970;10.082;2023-05-07T03:04:21;99449.88;;;12.45;63.77
64189;BME280;50493;50.970;10.082;2023-05-07T03:06:48;99446.75;;;12.32;64.25
64189;BME280;50493;50.970;10.082;2023-05-07T03:09:13;99456.22;;;11.70;67.22
64189;BME280;50493;50.970;10.082;2023-05-07T03:11:39;99454.50;;;12.04;65.76
64189;BME280;50493;50.970;10.082;2023-05-07T03:14:04;99457.63;;;12.49;64.40
64189;BME280;50493;50.970;10.082;2023-05-07T03:16:30;99461.97;;;12.51;63.25
64189;BME280;50493;50.970;10.082;2023-05-07T03:18:55;99463.06;;;12.42;63.36
64189;BME280;50493;50.970;10.082;2023-05-07T03:21:20;99462.59;;;11.94;65.46
64189;BME280;50493;50.970;10.082;2023-05-07T03:23:47;99458.69;;;11.01;68.90
64189;BME280;50493;50.970;10.082;2023-05-07T03:26:12;99457.38;;;10.39;72.41
64189;BME280;50493;50.970;10.082;2023-05-07T03:28:38;99462.97;;;11.05;70.46
64189;BME280;50493;50.970;10.082;2023-05-07T03:31:03;99454.28;;;11.41;68.59
64189;BME280;50493;50.970;10.082;2023-05-07T03:33:28;99465.91;;;12.01;66.12
64189;BME280;50493;50.970;10.082;2023-05-07T03:35:54;99459.81;;;11.66;66.72
64189;BME280;50493;50.970;10.082;2023-05-07T03:38:19;99459.31;;;11.86;66.84
64189;BME280;50493;50.970;10.082;2023-05-07T03:40:46;99459.13;;;12.27;64.74
64189;BME280;50493;50.970;10.082;2023-05-07T03:43:11;99460.16;;;12.53;62.99
64189;BME280;50493;50.970;10.082;2023-05-07T03:45:36;99458.63;;;12.75;62.24
64189;BME280;50493;50.970;10.082;2023-05-07T03:48:02;99468.19;;;12.46;63.46
64189;BME280;50493;50.970;10.082;2023-05-07T03:50:28;99469.91;;;12.47;63.13
64189;BME280;50493;50.970;10.082;2023-05-07T03:52:53;99469.47;;;12.63;62.28
64189;BME280;50493;50.970;10.082;2023-05-07T03:55:18;99467.31;;;12.14;64.29
64189;BME280;50493;50.970;10.082;2023-05-07T03:57:45;99475.97;;;12.16;64.46
64189;BME280;50493;50.970;10.082;2023-05-07T04:00:12;99469.94;;;12.14;63.90
64189;BME280;50493;50.970;10.082;2023-05-07T04:02:38;99473.25;;;12.53;62.37
64189;BME280;50493;50.970;10.082;2023-05-07T04:05:03;99471.00;;;12.70;61.82
64189;BME280;50493;50.970;10.082;2023-05-07T04:07:29;99474.34;;;12.12;64.13
64189;BME280;50493;50.970;10.082;2023-05-07T04:09:54;99477.59;;;12.54;62.18
64189;BME280;50493;50.970;10.082;2023-05-07T04:12:20;99481.97;;;12.53;62.35
64189;BME280;50493;50.970;10.082;2023-05-07T04:14:46;99483.16;;;12.10;63.74
64189;BME280;50493;50.970;10.082;2023-05-07T04:17:12;99488.50;;;11.71;65.82
64189;BME280;50493;50.970;10.082;2023-05-07T04:19:37;99496.28;;;12.08;63.75
64189;BME280;50493;50.970;10.082;2023-05-07T04:22:02;99494.81;;;12.31;62.92
64189;BME280;50493;50.970;10.082;2023-05-07T04:24:31;99493.13;;;12.61;61.50
64189;BME280;50493;50.970;10.082;2023-05-07T04:26:56;99488.41;;;12.43;61.78
64189;BME280;50493;50.970;10.082;2023-05-07T04:29:23;99496.13;;;12.47;61.93
64189;BME280;50493;50.970;10.082;2023-05-07T04:31:50;99499.22;;;12.62;60.91
64189;BME280;50493;50.970;10.082;2023-05-07T04:34:16;99502.59;;;12.67;60.80
64189;BME280;50493;50.970;10.082;2023-05-07T04:36:41;99503.34;;;12.39;62.20
64189;BME280;50493;50.970;10.082;2023-05-07T04:39:07;99497.75;;;12.52;63.37
64189;BME280;50493;50.970;10.082;2023-05-07T04:41:32;99492.59;;;12.48;65.77
64189;BME280;50493;50.970;10.082;2023-05-07T04:43:58;99496.09;;;12.16;73.15
64189;BME280;50493;50.970;10.082;2023-05-07T04:46:24;99496.09;;;11.81;72.00
64189;BME280;50493;50.970;10.082;2023-05-07T04:48:51;99500.38;;;10.68;78.72
64189;BME280;50493;50.970;10.082;2023-05-07T04:51:16;99497.75;;;11.10;77.86
64189;BME280;50493;50.970;10.082;2023-05-07T04:53:41;99494.34;;;11.05;72.85
64189;BME280;50493;50.970;10.082;2023-05-07T04:56:08;99497.28;;;10.91;73.96
64189;BME280;50493;50.970;10.082;2023-05-07T04:58:33;99504.63;;;10.74;78.18
64189;BME280;50493;50.970;10.082;2023-05-07T05:00:59;99507.38;;;10.66;80.99
64189;BME280;50493;50.970;10.082;2023-05-07T05:03:25;99508.25;;;10.18;80.90
64189;BME280;50493;50.970;10.082;2023-05-07T05:05:52;99514.06;;;10.79;80.92
64189;BME280;50493;50.970;10.082;2023-05-07T05:08:18;99515.59;;;10.46;80.12
64189;BME280;50493;50.970;10.082;2023-05-07T05:10:43;99524.00;;;11.04;70.89
64189;BME280;50493;50.970;10.082;2023-05-07T05:13:09;99528.94;;;11.20;70.97
64189;BME280;50493;50.970;10.082;2023-05-07T05:15:34;99540.41;;;10.70;78.12
64189;BME280;50493;50.970;10.082;2023-05-07T05:18:00;99536.94;;;11.12;77.49
64189;BME280;50493;50.970;10.082;2023-05-07T05:20:25;99538.75;;;10.66;76.24
64189;BME280;50493;50.970;10.082;2023-05-07T05:22:52;99545.13;;;10.95;74.46
64189;BME280;50493;50.970;10.082;2023-05-07T05:25:17;99546.16;;;10.88;73.16
64189;BME280;50493;50.970;10.082;2023-05-07T05:27:43;99543.03;;;11.12;69.81
64189;BME280;50493;50.970;10.082;2023-05-07T05:30:10;99552.53;;;11.17;70.80
64189;BME280;50493;50.970;10.082;2023-05-07T05:32:38;99553.81;;;11.38;69.80
64189;BME280;50493;50.970;10.082;2023-05-07T05:35:04;99559.59;;;11.54;66.36
64189;BME280;50493;50.970;10.082;2023-05-07T05:37:29;99549.59;;;11.32;69.26
64189;BME280;50493;50.970;10.082;2023-05-07T05:39:57;99553.59;;;11.48;68.90
64189;BME280;50493;50.970;10.082;2023-05-07T05:42:23;99550.28;;;11.79;67.68
64189;BME280;50493;50.970;10.082;2023-05-07T05:44:48;99554.00;;;11.69;67.74
64189;BME280;50493;50.970;10.082;2023-05-07T05:47:14;99551.44;;;11.27;66.96
64189;BME280;50493;50.970;10.082;2023-05-07T05:49:39;99548.94;;;11.63;65.97
64189;BME280;50493;50.970;10.082;2023-05-07T05:52:04;99553.38;;;11.19;67.88
64189;BME280;50493;50.970;10.082;2023-05-07T05:54:30;99566.59;;;11.52;64.56
64189;BME280;50493;50.970;10.082;2023-05-07T05:56:57;99561.56;;;11.81;63.13
64189;BME280;50493;50.970;10.082;2023-05-07T05:59:22;99560.31;;;11.98;63.28
64189;BME280;50493;50.970;10.082;2023-05-07T06:01:48;99569.22;;;11.91;65.85
64189;BME280;50493;50.970;10.082;2023-05-07T06:04:13;99556.50;;;12.11;64.05
64189;BME280;50493;50.970;10.082;2023-05-07T06:06:38;99556.56;;;12.08;62.38
64189;BME280;50493;50.970;10.082;2023-05-07T06:09:04;99561.75;;;12.11;64.75
64189;BME280;50493;50.970;10.082;2023-05-07T06:11:29;99562.50;;;12.15;63.17
64189;BME280;50493;50.970;10.082;2023-05-07T06:13:57;99558.06;;;12.19;62.91
64189;BME280;50493;50.970;10.082;2023-05-07T06:16:24;99561.91;;;12.40;63.92
64189;BME280;50493;50.970;10.082;2023-05-07T06:18:49;99566.91;;;12.47;63.28
64189;BME280;50493;50.970;10.082;2023-05-07T06:21:15;99569.00;;;12.00;63.08
64189;BME280;50493;50.970;10.082;2023-05-07T06:23:40;99569.16;;;11.94;62.67
64189;BME280;50493;50.970;10.082;2023-05-07T06:26:06;99574.16;;;12.03;62.61
64189;BME280;50493;50.970;10.082;2023-05-07T06:28:31;99577.81;;;11.96;65.00
64189;BME280;50493;50.970;10.082;2023-05-07T06:31:12;99582.34;;;11.09;67.28
64189;BME280;50493;50.970;10.082;2023-05-07T06:33:37;99583.66;;;11.71;65.86
64189;BME280;50493;50.970;10.082;2023-05-07T06:36:04;99579.97;;;11.78;62.12
64189;BME280;50493;50.970;10.082;2023-05-07T06:38:29;99577.47;;;12.11;62.21
64189;BME280;50493;50.970;10.082;2023-05-07T06:40:54;99579.03;;;12.19;60.78
64189;BME280;50493;50.970;10.082;2023-05-07T06:43:22;99580.88;;;12.13;62.07
64189;BME280;50493;50.970;10.082;2023-05-07T06:45:47;99579.25;;;12.09;60.93
64189;BME280;50493;50.970;10.082;2023-05-07T06:48:14;99588.22;;;11.60;65.78
64189;BME280;50493;50.970;10.082;2023-05-07T06:50:40;99584.88;;;11.94;63.76
64189;BME280;50493;50.970;10.082;2023-05-07T06:53:05;99593.53;;;11.96;64.05
64189;BME280;50493;50.970;10.082;2023-05-07T06:55:30;99595.91;;;11.69;66.70
64189;BME280;50493;50.970;10.082;2023-05-07T06:57:56;99588.13;;;11.66;66.02
64189;BME280;50493;50.970;10.082;2023-05-07T07:00:26;99595.84;;;11.30;65.77
64189;BME280;50493;50.970;10.082;2023-05-07T07:02:51;99591.59;;;11.26;65.16
64189;BME280;50493;50.970;10.082;2023-05-07T07:05:18;99594.50;;;10.68;69.12
64189;BME280;50493;50.970;10.082;2023-05-07T07:07:43;99593.72;;;11.07;67.00
64189;BME280;50493;50.970;10.082;2023-05-07T07:10:09;99593.19;;;11.33;66.40
64189;BME280;50493;50.970;10.082;2023-05-07T07:12:34;99589.19;;;11.57;63.28
64189;BME280;50493;50.970;10.082;2023-05-07T07:15:00;99597.09;;;11.54;65.28
64189;BME280;50493;50.970;10.082;2023-05-07T07:17:25;99600.03;;;10.51;69.02
64189;BME280;50493;50.970;10.082;2023-05-07T07:19:51;99603.72;;;10.39;68.54
64189;BME280;50493;50.970;10.082;2023-05-07T07:22:17;99603.31;;;10.09;71.20
64189;BME280;50493;50.970;10.082;2023-05-07T07:24:43;99604.16;;;10.63;71.10
64189;BME280;50493;50.970;10.082;2023-05-07T07:27:08;99603.66;;;9.88;73.17
64189;BME280;50493;50.970;10.082;2023-05-07T07:29:33;99596.03;;;10.28;71.71
64189;BME280;50493;50.970;10.082;2023-05-07T07:31:59;99602.63;;;9.98;72.73
64189;BME280;50493;50.970;10.082;2023-05-07T07:34:24;99594.09;;;9.88;72.24
64189;BME280;50493;50.970;10.082;2023-05-07T07:36:50;99584.31;;;10.53;68.36
64189;BME280;50493;50.970;10.082;2023-05-07T07:39:16;99594.56;;;10.12;72.56
64189;BME280;50493;50.970;10.082;2023-05-07T07:41:42;99598.22;;;10.55;69.61
64189;BME280;50493;50.970;10.082;2023-05-07T07:44:07;99598.25;;;10.98;68.79
64189;BME280;50493;50.970;10.082;2023-05-07T07:46:33;99607.00;;;9.97;72.62
64189;BME280;50493;50.970;10.082;2023-05-07T07:48:59;99608.44;;;10.67;68.00
64189;BME280;50493;50.970;10.082;2023-05-07T07:51:25;99603.66;;;10.89;67.35
64189;BME280;50493;50.970;10.082;2023-05-07T07:53:51;99603.97;;;11.18;65.57
64189;BME280;50493;50.970;10.082;2023-05-07T07:56:18;99621.91;;;11.36;66.61
64189;BME280;50493;50.970;10.082;2023-05-07T07:58:43;99622.50;;;11.51;65.98
64189;BME280;50493;50.970;10.082;2023-05-07T08:01:09;99617.28;;;11.07;69.06
64189;BME280;50493;50.970;10.082;2023-05-07T08:03:34;99614.63;;;11.10;68.31
64189;BME280;50493;50.970;10.082;2023-05-07T08:06:00;99622.91;;;11.73;64.52
64189;BME280;50493;50.970;10.082;2023-05-07T08:08:25;99619.44;;;11.71;63.01
64189;BME280;50493;50.970;10.082;2023-05-07T08:10:51;99624.25;;;11.48;65.42
64189;BME280;50493;50.970;10.082;2023-05-07T08:13:18;99628.13;;;10.35;70.14
64189;BME280;50493;50.970;10.082;2023-05-07T08:15:43;99622.81;;;11.35;63.05
64189;BME280;50493;50.970;10.082;2023-05-07T08:18:09;99627.13;;;11.78;61.15
64189;BME280;50493;50.970;10.082;2023-05-07T08:20:34;99621.03;;;12.15;61.21
64189;BME280;50493;50.970;10.082;2023-05-07T08:23:04;99613.22;;;12.48;59.20
64189;BME280;50493;50.970;10.082;2023-05-07T08:25:32;99616.72;;;12.47;59.62
64189;BME280;50493;50.970;10.082;2023-05-07T08:27:58;99613.22;;;12.81;61.06
64189;BME280;50493;50.970;10.082;2023-05-07T08:30:24;99612.84;;;12.97;60.71
64189;BME280;50493;50.970;10.082;2023-05-07T08:32:50;99609.00;;;13.09;59.70
64189;BME280;50493;50.970;10.082;2023-05-07T08:35:15;99613.47;;;13.05;59.98
64189;BME280;50493;50.970;10.082;2023-05-07T08:37:40;99603.34;;;12.24;60.76
64189;BME280;50493;50.970;10.082;2023-05-07T08:40:07;99610.56;;;12.85;59.90
64189;BME280;50493;50.970;10.082;2023-05-07T08:42:35;99614.69;;;12.59;60.08
64189;BME280;50493;50.970;10.082;2023-05-07T08:45:02;99623.00;;;12.76;59.91
64189;BME280;50493;50.970;10.082;2023-05-07T08:47:37;99631.97;;;12.33;61.49
64189;BME280;50493;50.970;10.082;2023-05-07T08:50:05;99627.06;;;12.54;61.47
64189;BME280;50493;50.970;10.082;2023-05-07T08:52:31;99630.94;;;12.39;62.80
64189;BME280;50493;50.970;10.082;2023-05-07T08:54:57;99634.13;;;12.86;57.11
64189;BME280;50493;50.970;10.082;2023-05-07T08:57:24;99632.94;;;11.52;64.58
64189;BME280;50493;50.970;10.082;2023-05-07T08:59:49;99631.75;;;12.06;61.28
64189;BME280;50493;50.970;10.082;2023-05-07T09:02:15;99627.78;;;12.60;61.33
64189;BME280;50493;50.970;10.082;2023-05-07T09:04:42;99634.94;;;12.18;61.98
64189;BME280;50493;50.970;10.082;2023-05-07T09:07:08;99630.88;;;11.67;63.78
64189;BME280;50493;50.970;10.082;2023-05-07T09:09:33;99637.81;;;11.69;65.02
64189;BME280;50493;50.970;10.082;2023-05-07T09:11:59;99648.44;;;11.60;65.06
64189;BME280;50493;50.970;10.082;2023-05-07T09:14:25;99635.31;;;11.64;65.25
64189;BME280;50493;50.970;10.082;2023-05-07T09:16:51;99638.88;;;12.36;59.16
64189;BME280;50493;50.970;10.082;2023-05-07T09:19:22;99647.06;;;12.22;63.44
64189;BME280;50493;50.970;10.082;2023-05-07T09:21:49;99653.81;;;12.32;62.25
64189;BME280;50493;50.970;10.082;2023-05-07T09:24:15;99652.38;;;10.96;67.84
64189;BME280;50493;50.970;10.082;2023-05-07T09:26:41;99646.28;;;11.38;66.49
64189;BME280;50493;50.970;10.082;2023-05-07T09:29:07;99643.53;;;11.87;65.25
64189;BME280;50493;50.970;10.082;2023-05-07T09:31:36;99654.78;;;11.06;66.54
64189;BME280;50493;50.970;10.082;2023-05-07T09:34:01;99663.69;;;11.41;65.64
64189;BME280;50493;50.970;10.082;2023-05-07T09:36:27;99662.50;;;10.67;69.58
64189;BME280;50493;50.970;10.082;2023-05-07T09:38:54;99652.19;;;11.04;68.89
64189;BME280;50493;50.970;10.082;2023-05-07T09:41:19;99643.94;;;11.70;66.89
64189;BME280;50493;50.970;10.082;2023-05-07T09:43:44;99642.97;;;12.10;62.34
64189;BME280;50493;50.970;10.082;2023-05-07T09:46:12;99637.38;;;12.60;58.91
64189;BME280;50493;50.970;10.082;2023-05-07T09:48:39;99640.84;;;13.28;58.41
64189;BME280;50493;50.970;10.082;2023-05-07T09:51:11;99643.59;;;13.53;56.54
64189;BME280;50493;50.970;10.082;2023-05-07T09:53:40;99649.09;;;12.46;63.21
64189;BME280;50493;50.970;10.082;2023-05-07T09:56:08;99651.69;;;11.30;66.04
64189;BME280;50493;50.970;10.082;2023-05-07T09:58:36;99646.28;;;10.46;72.26
64189;BME280;50493;50.970;10.082;2023-05-07T10:01:03;99647.72;;;12.31;65.17
64189;BME280;50493;50.970;10.082;2023-05-07T10:03:31;99639.53;;;11.28;67.45
64189;BME280;50493;50.970;10.082;2023-05-07T10:05:58;99630.50;;;13.22;58.19
64189;BME280;50493;50.970;10.082;2023-05-07T10:08:24;99643.47;;;11.88;64.86
64189;BME280;50493;50.970;10.082;2023-05-07T10:10:49;99643.38;;;12.99;59.55
64189;BME280;50493;50.970;10.082;2023-05-07T10:13:17;99642.47;;;13.62;57.98
64189;BME280;50493;50.970;10.082;2023-05-07T10:15:44;99639.81;;;13.02;61.16
64189;BME280;50493;50.970;10.082;2023-05-07T10:18:11;99639.59;;;13.99;56.55
64189;BME280;50493;50.970;10.082;2023-05-07T10:20:37;99641.88;;;13.80;57.38
64189;BME280;50493;50.970;10.082;2023-05-07T10:23:04;99636.03;;;14.00;58.39
64189;BME280;50493;50.970;10.082;2023-05-07T10:25:31;99633.53;;;14.51;55.12
64189;BME280;50493;50.970;10.082;2023-05-07T10:27:59;99640.59;;;14.22;56.03
64189;BME280;50493;50.970;10.082;2023-05-07T10:30:34;99648.97;;;12.86;60.80
64189;BME280;50493;50.970;10.082;2023-05-07T10:33:03;99647.72;;;12.66;61.75
64189;BME280;50493;50.970;10.082;2023-05-07T10:35:36;99642.81;;;13.79;58.18
64189;BME280;50493;50.970;10.082;2023-05-07T10:38:03;99648.88;;;13.52;58.98
64189;BME280;50493;50.970;10.082;2023-05-07T10:40:30;99656.31;;;11.60;66.73
64189;BME280;50493;50.970;10.082;2023-05-07T10:42:56;99654.09;;;12.21;65.27
64189;BME280;50493;50.970;10.082;2023-05-07T10:45:23;99643.78;;;13.15;62.46
64189;BME280;50493;50.970;10.082;2023-05-07T10:48:10;99646.59;;;12.42;62.69
64189;BME280;50493;50.970;10.082;2023-05-07T10:50:36;99637.09;;;13.05;61.50
64189;BME280;50493;50.970;10.082;2023-05-07T10:53:22;99639.06;;;13.58;60.63
64189;BME280;50493;50.970;10.082;2023-05-07T10:55:50;99648.88;;;12.20;63.78
64189;BME280;50493;50.970;10.082;2023-05-07T10:58:23;99643.47;;;11.90;67.02
64189;BME280;50493;50.970;10.082;2023-05-07T11:00:50;99640.47;;;13.40;61.13
64189;BME280;50493;50.970;10.082;2023-05-07T11:03:18;99648.78;;;14.40;57.28
64189;BME280;50493;50.970;10.082;2023-05-07T11:05:43;99653.50;;;14.30;57.14
64189;BME280;50493;50.970;10.082;2023-05-07T11:08:09;99654.75;;;14.18;57.09
64189;BME280;50493;50.970;10.082;2023-05-07T11:10:48;99655.53;;;13.33;61.96
64189;BME280;50493;50.970;10.082;2023-05-07T11:13:14;99649.56;;;14.43;57.79
64189;BME280;50493;50.970;10.082;2023-05-07T11:15:44;99650.78;;;14.85;54.16
64189;BME280;50493;50.970;10.082;2023-05-07T11:18:11;99643.88;;;14.02;58.43
64189;BME280;50493;50.970;10.082;2023-05-07T11:20:56;99642.56;;;14.69;56.28
64189;BME280;50493;50.970;10.082;2023-05-07T11:23:56;99640.59;;;15.25;54.80
64189;BME280;50493;50.970;10.082;2023-05-07T11:26:21;99642.22;;;15.52;54.17
64189;BME280;50493;50.970;10.082;2023-05-07T11:28:47;99642.34;;;13.95;58.29
64189;BME280;50493;50.970;10.082;2023-05-07T11:31:13;99635.50;;;14.44;58.62
64189;BME280;50493;50.970;10.082;2023-05-07T11:33:38;99643.06;;;15.06;55.03
64189;BME280;50493;50.970;10.082;2023-05-07T11:36:07;99642.38;;;14.22;56.58
64189;BME280;50493;50.970;10.082;2023-05-07T11:38:35;99640.47;;;14.54;58.70
64189;BME280;50493;50.970;10.082;2023-05-07T11:41:00;99645.16;;;13.89;58.62
64189;BME280;50493;50.970;10.082;2023-05-07T11:43:27;99640.97;;;13.53;62.44
64189;BME280;50493;50.970;10.082;2023-05-07T11:45:52;99639.91;;;15.20;56.21
64189;BME280;50493;50.970;10.082;2023-05-07T11:48:18;99656.16;;;15.78;54.37
64189;BME280;50493;50.970;10.082;2023-05-07T11:50:50;99643.66;;;16.28;52.65
64189;BME280;50493;50.970;10.082;2023-05-07T11:53:18;99637.59;;;16.26;53.20
64189;BME280;50493;50.970;10.082;2023-05-07T11:55:43;99638.06;;;15.69;53.71
64189;BME280;50493;50.970;10.082;2023-05-07T11:58:10;99645.06;;;14.72;54.32
64189;BME280;50493;50.970;10.082;2023-05-07T12:00:36;99645.13;;;14.71;58.60
64189;BME280;50493;50.970;10.082;2023-05-07T12:03:03;99637.50;;;15.37;55.79
64189;BME280;50493;50.970;10.082;2023-05-07T12:05:28;99629.00;;;14.55;54.44
64189;BME280;50493;50.970;10.082;2023-05-07T12:07:56;99640.25;;;15.10;56.08
64189;BME280;50493;50.970;10.082;2023-05-07T12:10:23;99626.28;;;15.32;56.08
64189;BME280;50493;50.970;10.082;2023-05-07T12:12:50;99624.13;;;14.69;54.54
64189;BME280;50493;50.970;10.082;2023-05-07T12:15:15;99635.09;;;14.30;58.77
64189;BME280;50493;50.970;10.082;2023-05-07T12:17:41;99640.88;;;13.56;60.69
64189;BME280;50493;50.970;10.082;2023-05-07T12:20:07;99621.88;;;14.05;59.95
64189;BME280;50493;50.970;10.082;2023-05-07T12:22:33;99627.56;;;14.46;59.91
64189;BME280;50493;50.970;10.082;2023-05-07T12:24:59;99634.94;;;15.35;56.87
64189;BME280;50493;50.970;10.082;2023-05-07T12:27:26;99636.13;;;15.50;53.93
64189;BME280;50493;50.970;10.082;2023-05-07T12:29:51;99629.81;;;13.15;63.10
64189;BME280;50493;50.970;10.082;2023-05-07T12:32:17;99627.78;;;13.83;63.49
64189;BME280;50493;50.970;10.082;2023-05-07T12:34:43;99637.22;;;14.19;61.40
64189;BME280;50493;50.970;10.082;2023-05-07T12:37:09;99630.75;;;15.30;56.52
64189;BME280;50493;50.970;10.082;2023-05-07T12:39:35;99637.88;;;14.77;58.89
64189;BME280;50493;50.970;10.082;2023-05-07T12:42:00;99627.78;;;15.85;54.97
64189;BME280;50493;50.970;10.082;2023-05-07T12:44:31;99629.94;;;16.40;52.17
64189;BME280;50493;50.970;10.082;2023-05-07T12:46:56;99625.09;;;17.13;52.81